sensor_id;sensor_type;location;lat;lon;timestamp;P1;durP1;ratioP1;P2;durP2;ratioP2
33672;SDS011;20011;51.510;9.942;2024-03-02T00:00:35;38.25;;;23.50;;
33672;SDS011;20011;51.510;9.942;2024-03-02T00:03:02;37.38;;;23.95;;
33672;SDS011;20011;51.510;9.942;2024-03-02T00:05:29;35.55;;;23.00;;
33672;SDS011;20011;51.510;9.942;2024-03-02T00:07:57;37.63;;;23.13;;
33672;SDS011;20011;51.510;9.942;2024-03-02T00:10:30;35.33;;;24.65;;
33672;SDS011;20011;51.510;9.942;2024-03-02T00:13:03;37.88;;;23.17;;
33672;SDS011;20011;51.510;9.942;2024-03-02T00:15:40;36.75;;;23.70;;
33672;SDS011;20011;51.510;9.942;2024-03-02T00:18:13;36.15;;;23.02;;
33672;SDS011;20011;51.510;9.942;2024-03-02T00:20:45;35.92;;;22.58;;
33672;SDS011;20011;51.510;9.942;2024-03-02T00:23:15;39.50;;;24.20;;
33672;SDS011;20011;51.510;9.942;2024-03-02T00:25:48;38.88;;;23.40;;
33672;SDS011;20011;51.510;9.942;2024-03-02T00:30:55;35.95;;;23.17;;
33672;SDS011;20011;51.510;9.942;2024-03-02T00:33:25;36.80;;;22.45;;
33672;SDS011;20011;51.510;9.942;2024-03-02T00:35:54;37.63;;;24.20;;
33672;SDS011;20011;51.510;9.942;2024-03-02T00:38:21;38.33;;;22.77;;
33672;SDS011;20011;51.510;9.942;2024-03-02T00:40:48;36.42;;;23.92;;
33672;SDS011;20011;51.510;9.942;2024-03-02T00:45:58;42.23;;;24.00;;
33672;SDS011;20011;51.510;9.942;2024-03-02T00:48:25;35.60;;;23.03;;
33672;SDS011;20011;51.510;9.942;2024-03-02T00:50:52;38.70;;;22.17;;
33672;SDS011;20011;51.510;9.942;2024-03-02T00:53:20;35.70;;;23.13;;
33672;SDS011;20011;51.510;9.942;2024-03-02T00:55:53;35.88;;;22.58;;
33672;SDS011;20011;51.510;9.942;2024-03-02T00:58:20;35.35;;;21.90;;
33672;SDS011;20011;51.510;9.942;2024-03-02T01:00:47;36.97;;;22.40;;
33672;SDS011;20011;51.510;9.942;2024-03-02T01:03:14;36.45;;;22.77;;
33672;SDS011;20011;51.510;9.942;2024-03-02T01:05:41;36.43;;;22.67;;
33672;SDS011;20011;51.510;9.942;2024-03-02T01:08:09;35.78;;;22.90;;
33672;SDS011;20011;51.510;9.942;2024-03-02T01:10:36;34.25;;;22.52;;
33672;SDS011;20011;51.510;9.942;2024-03-02T01:13:03;35.97;;;22.95;;
33672;SDS011;20011;51.510;9.942;2024-03-02T01:15:30;34.55;;;21.63;;
33672;SDS011;20011;51.510;9.942;2024-03-02T01:17:57;35.53;;;22.98;;
33672;SDS011;20011;51.510;9.942;2024-03-02T01:20:24;38.10;;;23.13;;
33672;SDS011;20011;51.510;9.942;2024-03-02T01:22:51;40.17;;;23.02;;
33672;SDS011;20011;51.510;9.942;2024-03-02T01:25:18;36.42;;;23.00;;
33672;SDS011;20011;51.510;9.942;2024-03-02T01:27:45;37.08;;;22.70;;
33672;SDS011;20011;51.510;9.942;2024-03-02T01:30:16;38.78;;;24.02;;
33672;SDS011;20011;51.510;9.942;2024-03-02T01:32:43;35.40;;;23.27;;
33672;SDS011;20011;51.510;9.942;2024-03-02T01:35:10;39.05;;;23.95;;
33672;SDS011;20011;51.510;9.942;2024-03-02T01:37:37;34.72;;;22.55;;
33672;SDS011;20011;51.510;9.942;2024-03-02T01:40:04;35.10;;;22.42;;
33672;SDS011;20011;51.510;9.942;2024-03-02T01:42:38;36.25;;;23.40;;
33672;SDS011;20011;51.510;9.942;2024-03-02T01:45:06;36.13;;;22.35;;
33672;SDS011;20011;51.510;9.942;2024-03-02T01:47:34;36.67;;;22.97;;
33672;SDS011;20011;51.510;9.942;2024-03-02T01:50:01;36.55;;;23.13;;
33672;SDS011;20011;51.510;9.942;2024-03-02T01:52:28;34.22;;;22.42;;
33672;SDS011;20011;51.510;9.942;2024-03-02T01:54:55;35.25;;;22.50;;
33672;SDS011;20011;51.510;9.942;2024-03-02T01:57:23;40.00;;;22.55;;
33672;SDS011;20011;51.510;9.942;2024-03-02T01:59:50;37.13;;;22.17;;
33672;SDS011;20011;51.510;9.942;2024-03-02T02:02:17;38.30;;;22.80;;
33672;SDS011;20011;51.510;9.942;2024-03-02T02:04:44;36.88;;;22.90;;
33672;SDS011;20011;51.510;9.942;2024-03-02T02:07:11;35.83;;;22.10;;
33672;SDS011;20011;51.510;9.942;2024-03-02T02:09:41;38.15;;;23.35;;
33672;SDS011;20011;51.510;9.942;2024-03-02T02:12:09;35.22;;;23.10;;
33672;SDS011;20011;51.510;9.942;2024-03-02T02:14:36;37.45;;;22.92;;
33672;SDS011;20011;51.510;9.942;2024-03-02T02:17:03;37.13;;;22.77;;
33672;SDS011;20011;51.510;9.942;2024-03-02T02:19:30;33.85;;;21.75;;
33672;SDS011;20011;51.510;9.942;2024-03-02T02:21:57;35.20;;;22.40;;
33672;SDS011;20011;51.510;9.942;2024-03-02T02:24:24;32.67;;;21.25;;
33672;SDS011;20011;51.510;9.942;2024-03-02T02:26:51;40.70;;;23.27;;
33672;SDS011;20011;51.510;9.942;2024-03-02T02:29:18;33.17;;;21.67;;
33672;SDS011;20011;51.510;9.942;2024-03-02T02:31:45;33.40;;;22.73;;
33672;SDS011;20011;51.510;9.942;2024-03-02T02:34:12;35.15;;;22.10;;
33672;SDS011;20011;51.510;9.942;2024-03-02T02:36:41;33.30;;;21.58;;
33672;SDS011;20011;51.510;9.942;2024-03-02T02:39:10;33.17;;;21.83;;
33672;SDS011;20011;51.510;9.942;2024-03-02T02:41:41;33.33;;;20.97;;
33672;SDS011;20011;51.510;9.942;2024-03-02T02:44:07;31.73;;;21.60;;
33672;SDS011;20011;51.510;9.942;2024-03-02T02:46:34;34.28;;;21.35;;
33672;SDS011;20011;51.510;9.942;2024-03-02T02:49:01;32.13;;;20.48;;
33672;SDS011;20011;51.510;9.942;2024-03-02T02:51:28;29.47;;;19.73;;
33672;SDS011;20011;51.510;9.942;2024-03-02T02:53:55;31.80;;;20.50;;
33672;SDS011;20011;51.510;9.942;2024-03-02T02:56:22;34.27;;;21.50;;
33672;SDS011;20011;51.510;9.942;2024-03-02T02:58:49;33.30;;;21.30;;
33672;SDS011;20011;51.510;9.942;2024-03-02T03:01:16;32.17;;;20.83;;
33672;SDS011;20011;51.510;9.942;2024-03-02T03:03:44;33.63;;;21.20;;
33672;SDS011;20011;51.510;9.942;2024-03-02T03:06:12;31.35;;;20.85;;
33672;SDS011;20011;51.510;9.942;2024-03-02T03:08:39;29.75;;;19.48;;
33672;SDS011;20011;51.510;9.942;2024-03-02T03:11:06;33.47;;;20.95;;
33672;SDS011;20011;51.510;9.942;2024-03-02T03:13:33;31.48;;;20.65;;
33672;SDS011;20011;51.510;9.942;2024-03-02T03:16:01;30.35;;;20.20;;
33672;SDS011;20011;51.510;9.942;2024-03-02T03:18:28;31.77;;;20.30;;
33672;SDS011;20011;51.510;9.942;2024-03-02T03:20:55;30.13;;;19.55;;
33672;SDS011;20011;51.510;9.942;2024-03-02T03:23:22;31.17;;;20.03;;
33672;SDS011;20011;51.510;9.942;2024-03-02T03:25:49;28.97;;;20.07;;
33672;SDS011;20011;51.510;9.942;2024-03-02T03:28:15;29.37;;;19.47;;
33672;SDS011;20011;51.510;9.942;2024-03-02T03:30:42;30.20;;;19.33;;
33672;SDS011;20011;51.510;9.942;2024-03-02T03:33:09;29.17;;;19.15;;
33672;SDS011;20011;51.510;9.942;2024-03-02T03:35:36;28.35;;;18.77;;
33672;SDS011;20011;51.510;9.942;2024-03-02T03:38:03;29.13;;;19.10;;
33672;SDS011;20011;51.510;9.942;2024-03-02T03:40:30;26.92;;;18.15;;
33672;SDS011;20011;51.510;9.942;2024-03-02T03:42:57;28.33;;;18.77;;
33672;SDS011;20011;51.510;9.942;2024-03-02T03:45:26;30.30;;;19.50;;
33672;SDS011;20011;51.510;9.942;2024-03-02T03:47:53;30.67;;;18.92;;
33672;SDS011;20011;51.510;9.942;2024-03-02T03:50:21;28.38;;;19.40;;
33672;SDS011;20011;51.510;9.942;2024-03-02T03:52:48;28.75;;;18.88;;
33672;SDS011;20011;51.510;9.942;2024-03-02T03:55:15;32.88;;;19.13;;
33672;SDS011;20011;51.510;9.942;2024-03-02T03:57:42;27.88;;;18.50;;
33672;SDS011;20011;51.510;9.942;2024-03-02T04:00:09;31.33;;;19.13;;
33672;SDS011;20011;51.510;9.942;2024-03-02T04:02:39;27.98;;;18.98;;
33672;SDS011;20011;51.510;9.942;2024-03-02T04:05:06;27.88;;;18.50;;
33672;SDS011;20011;51.510;9.942;2024-03-02T04:07:37;29.45;;;19.40;;
33672;SDS011;20011;51.510;9.942;2024-03-02T04:10:07;27.45;;;18.45;;
33672;SDS011;20011;51.510;9.942;2024-03-02T04:12:36;24.75;;;18.15;;
33672;SDS011;20011;51.510;9.942;2024-03-02T04:15:04;28.00;;;17.70;;
33672;SDS011;20011;51.510;9.942;2024-03-02T04:17:33;29.40;;;18.97;;
33672;SDS011;20011;51.510;9.942;2024-03-02T04:20:00;29.20;;;18.17;;
33672;SDS011;20011;51.510;9.942;2024-03-02T04:22:27;27.40;;;17.80;;
33672;SDS011;20011;51.510;9.942;2024-03-02T04:24:54;26.25;;;17.58;;
33672;SDS011;20011;51.510;9.942;2024-03-02T04:27:22;27.73;;;17.55;;
33672;SDS011;20011;51.510;9.942;2024-03-02T04:29:49;25.60;;;17.27;;
33672;SDS011;20011;51.510;9.942;2024-03-02T04:32:16;27.67;;;17.30;;
33672;SDS011;20011;51.510;9.942;2024-03-02T04:34:43;26.50;;;17.63;;
33672;SDS011;20011;51.510;9.942;2024-03-02T04:37:10;26.30;;;17.83;;
33672;SDS011;20011;51.510;9.942;2024-03-02T04:39:39;26.02;;;17.38;;
33672;SDS011;20011;51.510;9.942;2024-03-02T04:42:06;25.50;;;17.30;;
33672;SDS011;20011;51.510;9.942;2024-03-02T04:44:32;30.27;;;18.77;;
33672;SDS011;20011;51.510;9.942;2024-03-02T04:46:59;27.67;;;18.20;;
33672;SDS011;20011;51.510;9.942;2024-03-02T04:49:26;28.83;;;18.95;;
33672;SDS011;20011;51.510;9.942;2024-03-02T04:51:54;28.20;;;18.00;;
33672;SDS011;20011;51.510;9.942;2024-03-02T04:54:21;26.65;;;17.98;;
33672;SDS011;20011;51.510;9.942;2024-03-02T04:56:48;28.25;;;18.90;;
33672;SDS011;20011;51.510;9.942;2024-03-02T04:59:18;28.13;;;18.17;;
33672;SDS011;20011;51.510;9.942;2024-03-02T05:01:45;30.15;;;19.17;;
33672;SDS011;20011;51.510;9.942;2024-03-02T05:04:13;30.05;;;19.38;;
33672;SDS011;20011;51.510;9.942;2024-03-02T05:06:41;28.88;;;19.45;;
33672;SDS011;20011;51.510;9.942;2024-03-02T05:09:08;28.90;;;19.30;;
33672;SDS011;20011;51.510;9.942;2024-03-02T05:11:35;32.78;;;20.85;;
33672;SDS011;20011;51.510;9.942;2024-03-02T05:14:22;29.50;;;19.85;;
33672;SDS011;20011;51.510;9.942;2024-03-02T05:16:49;29.75;;;19.95;;
33672;SDS011;20011;51.510;9.942;2024-03-02T05:19:16;30.45;;;20.05;;
33672;SDS011;20011;51.510;9.942;2024-03-02T05:21:43;26.88;;;17.85;;
33672;SDS011;20011;51.510;9.942;2024-03-02T05:24:10;30.30;;;19.42;;
33672;SDS011;20011;51.510;9.942;2024-03-02T05:26:37;35.53;;;20.38;;
33672;SDS011;20011;51.510;9.942;2024-03-02T05:29:04;31.10;;;20.58;;
33672;SDS011;20011;51.510;9.942;2024-03-02T05:31:31;31.90;;;20.35;;
33672;SDS011;20011;51.510;9.942;2024-03-02T05:33:58;32.08;;;21.85;;
33672;SDS011;20011;51.510;9.942;2024-03-02T05:36:26;29.87;;;19.87;;
33672;SDS011;20011;51.510;9.942;2024-03-02T05:38:52;33.47;;;20.97;;
33672;SDS011;20011;51.510;9.942;2024-03-02T05:41:19;32.30;;;21.60;;
33672;SDS011;20011;51.510;9.942;2024-03-02T05:43:47;30.38;;;20.25;;
33672;SDS011;20011;51.510;9.942;2024-03-02T05:46:14;31.02;;;20.15;;
33672;SDS011;20011;51.510;9.942;2024-03-02T05:48:40;33.97;;;21.33;;
33672;SDS011;20011;51.510;9.942;2024-03-02T05:51:07;32.65;;;21.48;;
33672;SDS011;20011;51.510;9.942;2024-03-02T05:53:34;33.90;;;21.48;;
33672;SDS011;20011;51.510;9.942;2024-03-02T05:56:05;32.85;;;21.23;;
33672;SDS011;20011;51.510;9.942;2024-03-02T05:58:32;34.15;;;21.48;;
33672;SDS011;20011;51.510;9.942;2024-03-02T06:01:17;35.78;;;22.75;;
33672;SDS011;20011;51.510;9.942;2024-03-02T06:03:45;33.30;;;21.58;;
33672;SDS011;20011;51.510;9.942;2024-03-02T06:06:12;35.08;;;21.75;;
33672;SDS011;20011;51.510;9.942;2024-03-02T06:08:39;37.28;;;21.50;;
33672;SDS011;20011;51.510;9.942;2024-03-02T06:11:06;35.22;;;22.20;;
33672;SDS011;20011;51.510;9.942;2024-03-02T06:13:33;32.67;;;20.77;;
33672;SDS011;20011;51.510;9.942;2024-03-02T06:15:59;32.67;;;21.98;;
33672;SDS011;20011;51.510;9.942;2024-03-02T06:18:27;32.10;;;20.95;;
33672;SDS011;20011;51.510;9.942;2024-03-02T06:20:54;34.30;;;23.02;;
33672;SDS011;20011;51.510;9.942;2024-03-02T06:23:21;34.00;;;21.67;;
33672;SDS011;20011;51.510;9.942;2024-03-02T06:25:48;36.50;;;22.33;;
33672;SDS011;20011;51.510;9.942;2024-03-02T06:28:14;32.10;;;21.63;;
33672;SDS011;20011;51.510;9.942;2024-03-02T06:30:41;32.38;;;21.90;;
33672;SDS011;20011;51.510;9.942;2024-03-02T06:33:09;30.58;;;20.70;;
33672;SDS011;20011;51.510;9.942;2024-03-02T06:35:37;32.90;;;20.83;;
33672;SDS011;20011;51.510;9.942;2024-03-02T06:38:04;34.25;;;21.08;;
33672;SDS011;20011;51.510;9.942;2024-03-02T06:40:31;35.78;;;22.30;;
33672;SDS011;20011;51.510;9.942;2024-03-02T06:42:58;32.15;;;20.33;;
33672;SDS011;20011;51.510;9.942;2024-03-02T06:45:25;34.30;;;21.27;;
33672;SDS011;20011;51.510;9.942;2024-03-02T06:47:52;32.83;;;21.63;;
33672;SDS011;20011;51.510;9.942;2024-03-02T06:50:19;33.00;;;21.58;;
33672;SDS011;20011;51.510;9.942;2024-03-02T06:52:46;34.53;;;21.83;;
33672;SDS011;20011;51.510;9.942;2024-03-02T06:55:12;34.05;;;21.52;;
33672;SDS011;20011;51.510;9.942;2024-03-02T06:57:39;34.30;;;21.92;;
33672;SDS011;20011;51.510;9.942;2024-03-02T07:00:06;33.15;;;22.35;;
33672;SDS011;20011;51.510;9.942;2024-03-02T07:02:35;33.55;;;21.45;;
33672;SDS011;20011;51.510;9.942;2024-03-02T07:05:02;31.60;;;21.52;;
33672;SDS011;20011;51.510;9.942;2024-03-02T07:07:30;34.05;;;21.50;;
33672;SDS011;20011;51.510;9.942;2024-03-02T07:09:58;33.38;;;21.50;;
33672;SDS011;20011;51.510;9.942;2024-03-02T07:12:25;30.67;;;20.90;;
33672;SDS011;20011;51.510;9.942;2024-03-02T07:14:53;34.30;;;21.90;;
33672;SDS011;20011;51.510;9.942;2024-03-02T07:17:23;33.80;;;21.67;;
33672;SDS011;20011;51.510;9.942;2024-03-02T07:19:51;32.30;;;21.27;;
33672;SDS011;20011;51.510;9.942;2024-03-02T07:22:18;30.45;;;21.02;;
33672;SDS011;20011;51.510;9.942;2024-03-02T07:24:45;34.05;;;22.25;;
33672;SDS011;20011;51.510;9.942;2024-03-02T07:27:13;35.28;;;22.17;;
33672;SDS011;20011;51.510;9.942;2024-03-02T07:29:40;36.35;;;22.35;;
33672;SDS011;20011;51.510;9.942;2024-03-02T07:32:09;33.78;;;20.75;;
33672;SDS011;20011;51.510;9.942;2024-03-02T07:34:36;32.30;;;21.35;;
33672;SDS011;20011;51.510;9.942;2024-03-02T07:37:03;36.45;;;21.95;;
33672;SDS011;20011;51.510;9.942;2024-03-02T07:39:31;33.88;;;21.75;;
33672;SDS011;20011;51.510;9.942;2024-03-02T07:41:59;32.40;;;21.73;;
33672;SDS011;20011;51.510;9.942;2024-03-02T07:44:26;33.28;;;21.42;;
33672;SDS011;20011;51.510;9.942;2024-03-02T07:46:53;32.88;;;22.40;;
33672;SDS011;20011;51.510;9.942;2024-03-02T07:49:20;32.78;;;21.60;;
33672;SDS011;20011;51.510;9.942;2024-03-02T07:51:47;33.60;;;21.33;;
33672;SDS011;20011;51.510;9.942;2024-03-02T07:54:14;33.58;;;21.40;;
33672;SDS011;20011;51.510;9.942;2024-03-02T07:56:41;32.13;;;21.30;;
33672;SDS011;20011;51.510;9.942;2024-03-02T07:59:08;30.80;;;20.53;;
33672;SDS011;20011;51.510;9.942;2024-03-02T08:01:35;31.67;;;20.75;;
33672;SDS011;20011;51.510;9.942;2024-03-02T08:04:02;31.67;;;20.48;;
33672;SDS011;20011;51.510;9.942;2024-03-02T08:06:30;33.75;;;20.80;;
33672;SDS011;20011;51.510;9.942;2024-03-02T08:08:58;31.33;;;21.35;;
33672;SDS011;20011;51.510;9.942;2024-03-02T08:11:25;33.10;;;21.75;;
33672;SDS011;20011;51.510;9.942;2024-03-02T08:13:57;36.50;;;22.23;;
33672;SDS011;20011;51.510;9.942;2024-03-02T08:16:24;35.10;;;22.05;;
33672;SDS011;20011;51.510;9.942;2024-03-02T08:18:52;33.25;;;22.20;;
33672;SDS011;20011;51.510;9.942;2024-03-02T08:21:19;32.63;;;21.70;;
33672;SDS011;20011;51.510;9.942;2024-03-02T08:23:46;34.50;;;22.58;;
33672;SDS011;20011;51.510;9.942;2024-03-02T08:26:13;36.83;;;23.05;;
33672;SDS011;20011;51.510;9.942;2024-03-02T08:28:40;31.20;;;21.48;;
33672;SDS011;20011;51.510;9.942;2024-03-02T08:31:08;36.78;;;22.33;;
33672;SDS011;20011;51.510;9.942;2024-03-02T08:33:35;33.10;;;21.27;;
33672;SDS011;20011;51.510;9.942;2024-03-02T08:36:04;34.37;;;21.50;;
33672;SDS011;20011;51.510;9.942;2024-03-02T08:38:32;35.53;;;21.70;;
33672;SDS011;20011;51.510;9.942;2024-03-02T08:40:59;31.63;;;20.02;;
33672;SDS011;20011;51.510;9.942;2024-03-02T08:43:26;32.80;;;20.38;;
33672;SDS011;20011;51.510;9.942;2024-03-02T08:45:53;31.05;;;20.35;;
33672;SDS011;20011;51.510;9.942;2024-03-02T08:48:20;31.45;;;20.23;;
33672;SDS011;20011;51.510;9.942;2024-03-02T08:50:48;29.48;;;20.35;;
33672;SDS011;20011;51.510;9.942;2024-03-02T08:53:15;34.45;;;20.98;;
33672;SDS011;20011;51.510;9.942;2024-03-02T08:55:45;29.90;;;19.77;;
33672;SDS011;20011;51.510;9.942;2024-03-02T08:58:13;33.58;;;20.77;;
33672;SDS011;20011;51.510;9.942;2024-03-02T09:00:40;29.58;;;18.77;;
33672;SDS011;20011;51.510;9.942;2024-03-02T09:03:07;28.50;;;19.97;;
33672;SDS011;20011;51.510;9.942;2024-03-02T09:05:34;27.83;;;19.03;;
33672;SDS011;20011;51.510;9.942;2024-03-02T09:08:01;29.93;;;20.13;;
33672;SDS011;20011;51.510;9.942;2024-03-02T09:10:30;28.20;;;18.42;;
33672;SDS011;20011;51.510;9.942;2024-03-02T09:12:57;29.27;;;19.30;;
33672;SDS011;20011;51.510;9.942;2024-03-02T09:15:24;27.38;;;17.77;;
33672;SDS011;20011;51.510;9.942;2024-03-02T09:17:51;28.17;;;17.48;;
33672;SDS011;20011;51.510;9.942;2024-03-02T09:20:19;27.73;;;17.65;;
33672;SDS011;20011;51.510;9.942;2024-03-02T09:22:46;28.08;;;18.13;;
33672;SDS011;20011;51.510;9.942;2024-03-02T09:25:14;26.98;;;18.02;;
33672;SDS011;20011;51.510;9.942;2024-03-02T09:27:42;25.92;;;17.25;;
33672;SDS011;20011;51.510;9.942;2024-03-02T09:30:09;26.10;;;17.27;;
33672;SDS011;20011;51.510;9.942;2024-03-02T09:32:37;24.33;;;16.35;;
33672;SDS011;20011;51.510;9.942;2024-03-02T09:35:04;24.00;;;16.02;;
33672;SDS011;20011;51.510;9.942;2024-03-02T09:37:32;24.08;;;16.38;;
33672;SDS011;20011;51.510;9.942;2024-03-02T09:39:59;24.48;;;15.85;;
33672;SDS011;20011;51.510;9.942;2024-03-02T09:42:27;26.20;;;16.42;;
33672;SDS011;20011;51.510;9.942;2024-03-02T09:44:55;24.27;;;16.13;;
33672;SDS011;20011;51.510;9.942;2024-03-02T09:47:23;23.98;;;16.02;;
33672;SDS011;20011;51.510;9.942;2024-03-02T09:49:50;22.80;;;15.55;;
33672;SDS011;20011;51.510;9.942;2024-03-02T09:52:17;21.35;;;14.13;;
33672;SDS011;20011;51.510;9.942;2024-03-02T09:54:44;23.73;;;16.02;;
33672;SDS011;20011;51.510;9.942;2024-03-02T09:57:13;22.95;;;14.95;;
33672;SDS011;20011;51.510;9.942;2024-03-02T09:59:41;23.45;;;15.10;;
33672;SDS011;20011;51.510;9.942;2024-03-02T10:02:08;23.08;;;15.05;;
33672;SDS011;20011;51.510;9.942;2024-03-02T10:04:35;21.33;;;14.20;;
33672;SDS011;20011;51.510;9.942;2024-03-02T10:07:15;21.73;;;13.80;;
33672;SDS011;20011;51.510;9.942;2024-03-02T10:09:47;18.55;;;13.27;;
33672;SDS011;20011;51.510;9.942;2024-03-02T10:12:15;23.37;;;14.33;;
33672;SDS011;20011;51.510;9.942;2024-03-02T10:14:43;22.70;;;13.73;;
33672;SDS011;20011;51.510;9.942;2024-03-02T10:17:12;21.23;;;13.25;;
33672;SDS011;20011;51.510;9.942;2024-03-02T10:19:39;20.92;;;13.57;;
33672;SDS011;20011;51.510;9.942;2024-03-02T10:22:07;17.07;;;11.20;;
33672;SDS011;20011;51.510;9.942;2024-03-02T10:24:36;18.45;;;11.73;;
33672;SDS011;20011;51.510;9.942;2024-03-02T10:27:09;18.42;;;12.07;;
33672;SDS011;20011;51.510;9.942;2024-03-02T10:29:37;20.58;;;12.70;;
33672;SDS011;20011;51.510;9.942;2024-03-02T10:32:09;19.85;;;12.32;;
33672;SDS011;20011;51.510;9.942;2024-03-02T10:34:41;18.98;;;11.90;;
33672;SDS011;20011;51.510;9.942;2024-03-02T10:37:10;17.17;;;12.48;;
33672;SDS011;20011;51.510;9.942;2024-03-02T10:39:39;17.00;;;11.97;;
33672;SDS011;20011;51.510;9.942;2024-03-02T10:42:07;17.45;;;11.30;;
33672;SDS011;20011;51.510;9.942;2024-03-02T10:44:35;17.77;;;11.63;;
33672;SDS011;20011;51.510;9.942;2024-03-02T10:47:03;16.95;;;11.23;;
33672;SDS011;20011;51.510;9.942;2024-03-02T10:49:31;15.40;;;10.30;;
33672;SDS011;20011;51.510;9.942;2024-03-02T10:51:59;16.02;;;10.65;;
33672;SDS011;20011;51.510;9.942;2024-03-02T10:54:27;16.27;;;10.82;;
33672;SDS011;20011;51.510;9.942;2024-03-02T10:57:04;13.05;;;8.98;;
33672;SDS011;20011;51.510;9.942;2024-03-02T10:59:34;13.10;;;8.35;;
33672;SDS011;20011;51.510;9.942;2024-03-02T11:02:11;14.32;;;9.85;;
33672;SDS011;20011;51.510;9.942;2024-03-02T11:04:40;15.55;;;9.82;;
33672;SDS011;20011;51.510;9.942;2024-03-02T11:07:09;15.35;;;10.43;;
33672;SDS011;20011;51.510;9.942;2024-03-02T11:09:40;15.15;;;10.25;;
33672;SDS011;20011;51.510;9.942;2024-03-02T11:12:19;13.90;;;9.48;;
33672;SDS011;20011;51.510;9.942;2024-03-02T11:14:50;14.73;;;9.90;;
33672;SDS011;20011;51.510;9.942;2024-03-02T11:17:20;13.55;;;9.45;;
33672;SDS011;20011;51.510;9.942;2024-03-02T11:19:49;15.68;;;10.23;;
33672;SDS011;20011;51.510;9.942;2024-03-02T11:22:17;13.82;;;10.20;;
33672;SDS011;20011;51.510;9.942;2024-03-02T11:24:48;15.68;;;9.50;;
33672;SDS011;20011;51.510;9.942;2024-03-02T11:27:58;12.88;;;7.65;;
33672;SDS011;20011;51.510;9.942;2024-03-02T11:32:59;11.10;;;7.55;;
33672;SDS011;20011;51.510;9.942;2024-03-02T11:35:42;13.43;;;9.45;;
33672;SDS011;20011;51.510;9.942;2024-03-02T11:38:10;15.48;;;8.75;;
33672;SDS011;20011;51.510;9.942;2024-03-02T11:40:38;10.10;;;7.07;;
33672;SDS011;20011;51.510;9.942;2024-03-02T11:43:06;16.52;;;9.93;;
33672;SDS011;20011;51.510;9.942;2024-03-02T11:45:35;13.90;;;7.93;;
33672;SDS011;20011;51.510;9.942;2024-03-02T11:48:08;13.57;;;9.57;;
33672;SDS011;20011;51.510;9.942;2024-03-02T11:50:51;15.85;;;9.63;;
33672;SDS011;20011;51.510;9.942;2024-03-02T11:53:19;13.40;;;8.23;;
33672;SDS011;20011;51.510;9.942;2024-03-02T11:55:47;13.95;;;9.23;;
33672;SDS011;20011;51.510;9.942;2024-03-02T11:58:16;15.33;;;9.63;;
33672;SDS011;20011;51.510;9.942;2024-03-02T12:00:51;13.10;;;8.75;;
33672;SDS011;20011;51.510;9.942;2024-03-02T12:03:20;14.07;;;9.10;;
33672;SDS011;20011;51.510;9.942;2024-03-02T12:05:49;11.98;;;8.25;;
33672;SDS011;20011;51.510;9.942;2024-03-02T12:08:17;12.20;;;8.13;;
33672;SDS011;20011;51.510;9.942;2024-03-02T12:10:55;12.35;;;8.02;;
33672;SDS011;20011;51.510;9.942;2024-03-02T12:13:27;11.05;;;7.20;;
33672;SDS011;20011;51.510;9.942;2024-03-02T12:15:54;11.50;;;7.68;;
33672;SDS011;20011;51.510;9.942;2024-03-02T12:18:25;10.90;;;8.00;;
33672;SDS011;20011;51.510;9.942;2024-03-02T12:20:53;9.63;;;6.60;;
33672;SDS011;20011;51.510;9.942;2024-03-02T12:23:24;11.18;;;7.63;;
33672;SDS011;20011;51.510;9.942;2024-03-02T12:25:51;12.02;;;7.35;;
33672;SDS011;20011;51.510;9.942;2024-03-02T12:28:19;9.93;;;6.57;;
33672;SDS011;20011;51.510;9.942;2024-03-02T12:30:46;7.22;;;4.65;;
33672;SDS011;20011;51.510;9.942;2024-03-02T12:33:14;8.90;;;6.15;;
33672;SDS011;20011;51.510;9.942;2024-03-02T12:35:41;10.48;;;6.93;;
33672;SDS011;20011;51.510;9.942;2024-03-02T12:38:09;6.40;;;4.78;;
33672;SDS011;20011;51.510;9.942;2024-03-02T12:40:37;9.18;;;6.40;;
33672;SDS011;20011;51.510;9.942;2024-03-02T12:43:05;9.07;;;5.45;;
33672;SDS011;20011;51.510;9.942;2024-03-02T12:45:33;8.48;;;5.53;;
33672;SDS011;20011;51.510;9.942;2024-03-02T12:48:01;5.82;;;4.00;;
33672;SDS011;20011;51.510;9.942;2024-03-02T12:50:30;6.60;;;4.45;;
33672;SDS011;20011;51.510;9.942;2024-03-02T12:52:57;7.60;;;5.18;;
33672;SDS011;20011;51.510;9.942;2024-03-02T12:55:24;7.40;;;4.70;;
33672;SDS011;20011;51.510;9.942;2024-03-02T12:57:52;8.00;;;5.30;;
33672;SDS011;20011;51.510;9.942;2024-03-02T13:00:20;7.10;;;4.50;;
33672;SDS011;20011;51.510;9.942;2024-03-02T13:02:49;5.40;;;3.73;;
33672;SDS011;20011;51.510;9.942;2024-03-02T13:05:18;5.53;;;3.75;;
33672;SDS011;20011;51.510;9.942;2024-03-02T13:07:47;5.35;;;3.63;;
33672;SDS011;20011;51.510;9.942;2024-03-02T13:10:14;6.10;;;3.30;;
33672;SDS011;20011;51.510;9.942;2024-03-02T13:12:42;5.23;;;3.17;;
33672;SDS011;20011;51.510;9.942;2024-03-02T13:15:09;6.80;;;4.53;;
33672;SDS011;20011;51.510;9.942;2024-03-02T13:17:42;4.13;;;2.97;;
33672;SDS011;20011;51.510;9.942;2024-03-02T13:20:12;5.28;;;2.97;;
33672;SDS011;20011;51.510;9.942;2024-03-02T13:22:41;3.67;;;2.45;;
33672;SDS011;20011;51.510;9.942;2024-03-02T13:25:08;4.15;;;2.67;;
33672;SDS011;20011;51.510;9.942;2024-03-02T13:27:37;3.63;;;2.70;;
33672;SDS011;20011;51.510;9.942;2024-03-02T13:30:04;6.80;;;3.20;;
33672;SDS011;20011;51.510;9.942;2024-03-02T13:32:35;4.03;;;3.05;;
33672;SDS011;20011;51.510;9.942;2024-03-02T13:35:02;4.88;;;2.85;;
33672;SDS011;20011;51.510;9.942;2024-03-02T13:37:29;5.50;;;3.28;;
33672;SDS011;20011;51.510;9.942;2024-03-02T13:39:56;6.82;;;4.03;;
33672;SDS011;20011;51.510;9.942;2024-03-02T13:42:23;4.50;;;3.08;;
33672;SDS011;20011;51.510;9.942;2024-03-02T13:44:50;3.95;;;2.90;;
33672;SDS011;20011;51.510;9.942;2024-03-02T13:47:18;3.08;;;2.20;;
33672;SDS011;20011;51.510;9.942;2024-03-02T13:49:45;4.53;;;2.30;;
33672;SDS011;20011;51.510;9.942;2024-03-02T13:52:15;3.22;;;2.03;;
33672;SDS011;20011;51.510;9.942;2024-03-02T13:54:44;3.35;;;2.42;;
33672;SDS011;20011;51.510;9.942;2024-03-02T13:57:12;3.50;;;2.45;;
33672;SDS011;20011;51.510;9.942;2024-03-02T13:59:40;4.13;;;2.30;;
33672;SDS011;20011;51.510;9.942;2024-03-02T14:02:09;4.68;;;2.70;;
33672;SDS011;20011;51.510;9.942;2024-03-02T14:04:37;4.22;;;2.20;;
33672;SDS011;20011;51.510;9.942;2024-03-02T14:07:05;4.43;;;2.13;;
33672;SDS011;20011;51.510;9.942;2024-03-02T14:09:35;3.95;;;2.67;;
33672;SDS011;20011;51.510;9.942;2024-03-02T14:12:03;5.10;;;2.47;;
33672;SDS011;20011;51.510;9.942;2024-03-02T14:14:31;3.10;;;2.30;;
33672;SDS011;20011;51.510;9.942;2024-03-02T14:17:00;3.70;;;2.47;;
33672;SDS011;20011;51.510;9.942;2024-03-02T14:19:30;3.42;;;2.25;;
33672;SDS011;20011;51.510;9.942;2024-03-02T14:21:58;3.40;;;2.50;;
33672;SDS011;20011;51.510;9.942;2024-03-02T14:24:26;3.35;;;2.40;;
33672;SDS011;20011;51.510;9.942;2024-03-02T14:26:54;3.90;;;2.50;;
33672;SDS011;20011;51.510;9.942;2024-03-02T14:29:36;2.83;;;2.23;;
33672;SDS011;20011;51.510;9.942;2024-03-02T14:32:04;2.92;;;2.00;;
33672;SDS011;20011;51.510;9.942;2024-03-02T14:34:32;3.13;;;2.30;;
33672;SDS011;20011;51.510;9.942;2024-03-02T14:37:01;3.28;;;1.90;;
33672;SDS011;20011;51.510;9.942;2024-03-02T14:39:29;2.75;;;2.10;;